createdAt,value
2023-01-23T00:01:30.605Z,14.70
2023-01-23T00:03:59.997Z,14.50
2023-01-23T00:06:28.295Z,15.10
2023-01-23T00:08:57.201Z,15.50
2023-01-23T00:11:27.773Z,16.20
2023-01-23T00:13:57.288Z,16.20
2023-01-23T00:16:27.735Z,15.60
2023-01-23T00:18:55.975Z,14.90
2023-01-23T00:21:27.097Z,16.40
2023-01-23T00:23:57.641Z,16.30
2023-01-23T00:26:28.265Z,15.70
2023-01-23T00:28:56.945Z,15.80
2023-01-23T00:31:26.924Z,15.30
2023-01-23T00:33:56.967Z,15.30
2023-01-23T00:36:28.120Z,14.40
2023-01-23T00:38:56.963Z,16.10
2023-01-23T00:41:25.461Z,13.50
2023-01-23T00:43:54.669Z,16.30
2023-01-23T00:46:23.126Z,15.70
2023-01-23T00:48:51.683Z,15.50
2023-01-23T00:51:19.857Z,15.30
2023-01-23T00:53:47.967Z,14.80
2023-01-23T00:56:16.029Z,14.60
2023-01-23T00:58:45.333Z,14.40
2023-01-23T01:01:14.360Z,14.30
2023-01-23T01:03:42.579Z,15.00
2023-01-23T01:06:11.148Z,15.50
2023-01-23T01:08:39.299Z,15.70
2023-01-23T01:11:08.002Z,13.90
2023-01-23T01:13:36.295Z,16.50
2023-01-23T01:16:06.178Z,14.90
2023-01-23T01:18:34.166Z,14.40
2023-01-23T01:21:05.497Z,16.20
2023-01-23T01:23:33.529Z,14.70
2023-01-23T01:26:01.889Z,15.60
2023-01-23T01:28:32.497Z,16.60
2023-01-23T01:31:06.132Z,15.80
2023-01-23T01:33:34.206Z,13.90
2023-01-23T01:36:02.207Z,15.00
2023-01-23T01:38:30.184Z,15.10
2023-01-23T01:40:59.235Z,14.30
2023-01-23T01:43:28.377Z,15.80
2023-01-23T01:46:21.030Z,15.00
2023-01-23T01:48:56.092Z,15.80
2023-01-23T01:51:28.919Z,15.10
2023-01-23T01:54:04.778Z,15.10
2023-01-23T01:56:39.514Z,13.80
2023-01-23T01:59:08.316Z,14.40
2023-01-23T02:01:37.385Z,15.50
2023-01-23T02:04:05.947Z,13.20
2023-01-23T02:06:34.001Z,15.20
2023-01-23T02:09:05.490Z,14.60
2023-01-23T02:11:33.758Z,14.00
2023-01-23T02:14:01.780Z,13.60
2023-01-23T02:16:33.394Z,15.20
2023-01-23T02:19:07.244Z,14.50
2023-01-23T02:21:38.805Z,14.20
2023-01-23T02:24:23.525Z,14.80
2023-01-23T02:26:52.722Z,17.00
2023-01-23T02:29:20.927Z,16.00
2023-01-23T02:31:55.599Z,16.30
2023-01-23T02:34:25.356Z,14.30
2023-01-23T02:36:55.295Z,15.40
2023-01-23T02:39:23.352Z,16.00
2023-01-23T02:41:55.539Z,15.30
2023-01-23T02:44:28.352Z,16.70
2023-01-23T02:47:04.347Z,14.80
2023-01-23T02:49:32.643Z,16.10
2023-01-23T02:52:00.710Z,15.50
2023-01-23T02:54:29.022Z,16.10
2023-01-23T02:56:57.368Z,16.80
2023-01-23T02:59:44.451Z,17.80
2023-01-23T03:02:15.193Z,17.30
2023-01-23T03:04:43.283Z,16.90
2023-01-23T03:07:11.346Z,18.10
2023-01-23T03:09:39.559Z,16.60
2023-01-23T03:12:08.661Z,16.70
2023-01-23T03:14:37.181Z,16.90
2023-01-23T03:17:06.760Z,16.00
2023-01-23T03:19:36.378Z,16.30
2023-01-23T03:22:07.264Z,16.10
2023-01-23T03:24:35.558Z,15.60
2023-01-23T03:27:04.915Z,17.30
2023-01-23T03:29:56.728Z,16.30
2023-01-23T03:32:25.558Z,15.00
2023-01-23T03:34:53.935Z,16.30
2023-01-23T03:37:23.493Z,16.10
2023-01-23T03:40:10.495Z,15.70
2023-01-23T03:42:38.574Z,16.20
2023-01-23T03:45:09.247Z,15.00
2023-01-23T03:47:37.408Z,17.30
2023-01-23T03:50:10.002Z,16.90
2023-01-23T03:52:38.621Z,15.00
2023-01-23T03:55:08.145Z,16.50
2023-01-23T03:57:37.025Z,14.70
2023-01-23T04:00:16.208Z,14.80
2023-01-23T04:03:04.767Z,15.10
2023-01-23T04:05:32.804Z,14.10
2023-01-23T04:08:01.483Z,15.10
2023-01-23T04:10:29.665Z,14.20
2023-01-23T04:13:02.914Z,15.20
2023-01-23T04:15:33.464Z,13.70
2023-01-23T04:18:02.001Z,13.70
2023-01-23T04:20:30.251Z,15.10
2023-01-23T04:22:58.754Z,16.40
2023-01-23T04:25:28.648Z,16.00
2023-01-23T04:27:56.670Z,15.20
2023-01-23T04:30:24.719Z,15.70
2023-01-23T04:32:52.808Z,15.40
2023-01-23T04:35:21.004Z,15.50
2023-01-23T04:37:49.074Z,16.10
2023-01-23T04:40:18.081Z,16.00
2023-01-23T04:42:53.717Z,18.20
2023-01-23T04:45:37.118Z,23.60
2023-01-23T04:48:24.921Z,19.00
2023-01-23T04:50:54.075Z,15.10
2023-01-23T04:53:22.089Z,14.50
2023-01-23T04:55:55.995Z,15.60
2023-01-23T04:58:24.086Z,14.50
2023-01-23T05:00:53.221Z,15.90
2023-01-23T05:03:25.040Z,15.50
2023-01-23T05:05:53.532Z,14.90
2023-01-23T05:08:22.444Z,15.30
2023-01-23T05:10:57.659Z,15.80
2023-01-23T05:13:26.075Z,18.00
2023-01-23T05:15:54.190Z,18.30
2023-01-23T05:18:22.551Z,14.90
2023-01-23T05:20:51.479Z,16.10
2023-01-23T05:23:19.653Z,14.30
2023-01-23T05:25:50.810Z,16.80
2023-01-23T05:28:18.905Z,16.30
2023-01-23T05:30:49.999Z,14.90
2023-01-23T05:33:25.995Z,16.90
2023-01-23T05:35:58.149Z,16.00
2023-01-23T05:38:26.309Z,14.80
2023-01-23T05:40:54.815Z,14.20
2023-01-23T05:43:43.023Z,17.80
2023-01-23T05:46:26.481Z,15.50
2023-01-23T05:48:54.722Z,16.40
2023-01-23T05:51:23.395Z,17.90
2023-01-23T05:53:51.833Z,16.20
2023-01-23T05:56:19.871Z,15.70
2023-01-23T05:59:16.931Z,16.80
2023-01-23T06:01:56.370Z,15.10
2023-01-23T06:05:00.728Z,15.60
2023-01-23T06:07:37.263Z,15.90
2023-01-23T06:10:10.183Z,17.50
2023-01-23T06:12:38.357Z,15.80
2023-01-23T06:15:08.239Z,16.00
2023-01-23T06:17:36.709Z,15.50
2023-01-23T06:20:07.405Z,24.50
2023-01-23T06:22:35.484Z,27.10
2023-01-23T06:25:08.996Z,23.40
2023-01-23T06:27:37.159Z,18.40
2023-01-23T06:30:10.755Z,15.00
2023-01-23T06:32:42.960Z,15.50
2023-01-23T06:35:11.420Z,16.10
2023-01-23T06:37:41.602Z,15.00
2023-01-23T06:40:13.392Z,16.30
2023-01-23T06:42:43.756Z,16.10
2023-01-23T06:45:12.272Z,16.70
2023-01-23T06:47:40.246Z,16.40
2023-01-23T06:50:10.708Z,16.00
2023-01-23T06:52:39.179Z,17.50
2023-01-23T06:55:09.236Z,17.20
2023-01-23T06:57:37.294Z,17.60
2023-01-23T07:00:09.531Z,18.00
2023-01-23T07:02:39.406Z,16.40
2023-01-23T07:05:08.629Z,18.10
2023-01-23T07:07:37.506Z,16.80
2023-01-23T07:10:08.037Z,17.00
2023-01-23T07:12:36.028Z,16.20
2023-01-23T07:15:04.793Z,16.20
2023-01-23T07:20:09.314Z,16.80
2023-01-23T07:22:41.913Z,17.20
2023-01-23T07:25:10.412Z,17.70
2023-01-23T07:27:38.362Z,18.60
2023-01-23T07:30:08.947Z,18.00
2023-01-23T07:32:36.908Z,18.40
2023-01-23T07:35:07.197Z,16.60
2023-01-23T07:37:35.143Z,17.30
2023-01-23T07:40:03.433Z,20.50
2023-01-23T07:42:31.436Z,17.70
2023-01-23T07:44:59.432Z,17.60
2023-01-23T07:47:27.375Z,18.10
2023-01-23T07:49:55.410Z,19.10
2023-01-23T07:52:23.392Z,17.70
2023-01-23T07:54:51.409Z,19.70
2023-01-23T07:57:19.563Z,17.50
2023-01-23T07:59:48.539Z,18.20
2023-01-23T08:02:16.695Z,19.40
2023-01-23T08:04:45.469Z,18.90
2023-01-23T08:07:13.676Z,17.40
2023-01-23T08:09:41.579Z,17.70
2023-01-23T08:12:09.481Z,18.50
2023-01-23T08:14:37.436Z,19.80
2023-01-23T08:17:05.752Z,18.10
2023-01-23T08:19:33.737Z,18.00
2023-01-23T08:22:01.722Z,18.60
2023-01-23T08:24:29.806Z,18.80
2023-01-23T08:26:58.183Z,19.30
2023-01-23T08:29:26.248Z,16.80
2023-01-23T08:31:54.516Z,17.70
2023-01-23T08:34:23.575Z,17.90
2023-01-23T08:36:51.879Z,18.70
2023-01-23T08:39:20.137Z,18.10
2023-01-23T08:41:48.119Z,17.40
2023-01-23T08:44:16.052Z,17.20
2023-01-23T08:46:44.880Z,17.10
2023-01-23T08:49:12.918Z,17.20
2023-01-23T08:51:40.858Z,15.70
2023-01-23T08:54:08.793Z,15.80
2023-01-23T08:56:36.747Z,15.60
2023-01-23T08:59:04.726Z,17.20
2023-01-23T09:01:32.729Z,18.20
2023-01-23T09:04:00.666Z,17.70
2023-01-23T09:06:28.678Z,17.60
2023-01-23T09:08:56.651Z,17.70
2023-01-23T09:11:24.691Z,16.60
2023-01-23T09:13:54.047Z,17.00
2023-01-23T09:16:22.370Z,16.80
2023-01-23T09:18:50.586Z,18.60
2023-01-23T09:21:18.657Z,18.00
2023-01-23T09:23:46.578Z,18.10
2023-01-23T09:26:15.551Z,18.10
2023-01-23T09:28:43.657Z,17.20
2023-01-23T09:31:13.412Z,17.40
2023-01-23T09:33:41.883Z,18.40
2023-01-23T09:36:11.307Z,15.70
2023-01-23T09:38:39.450Z,17.30
2023-01-23T09:41:16.049Z,17.40
2023-01-23T09:43:51.701Z,16.30
2023-01-23T09:46:24.656Z,15.50
2023-01-23T09:48:57.571Z,16.80
2023-01-23T09:51:30.579Z,16.20
2023-01-23T09:54:04.981Z,15.30
2023-01-23T09:56:41.437Z,15.60
2023-01-23T09:59:14.985Z,16.40
2023-01-23T10:01:43.010Z,17.80
2023-01-23T10:04:15.338Z,17.40
2023-01-23T10:07:02.690Z,17.60
2023-01-23T10:09:54.955Z,17.30
2023-01-23T10:12:35.613Z,14.90
2023-01-23T10:15:23.897Z,19.60
2023-01-23T10:18:04.716Z,17.40
2023-01-23T10:20:50.427Z,19.00
2023-01-23T10:23:41.333Z,15.70
2023-01-23T10:26:15.159Z,17.30
2023-01-23T10:28:46.172Z,16.60
2023-01-23T10:31:28.603Z,16.10
2023-01-23T10:34:06.705Z,17.90
2023-01-23T10:36:53.456Z,17.30
2023-01-23T10:39:29.245Z,18.40
2023-01-23T10:42:02.369Z,17.50
2023-01-23T10:44:30.958Z,16.80
2023-01-23T10:47:04.633Z,18.80
2023-01-23T10:49:34.831Z,18.90
2023-01-23T10:52:02.809Z,29.90
2023-01-23T10:54:32.888Z,18.70
2023-01-23T10:57:04.185Z,18.90
2023-01-23T10:59:36.042Z,17.50
2023-01-23T11:02:20.384Z,18.00
2023-01-23T11:04:51.095Z,18.80
2023-01-23T11:07:21.671Z,19.40
2023-01-23T11:09:53.293Z,18.80
2023-01-23T11:12:23.473Z,17.60
2023-01-23T11:15:19.719Z,19.30
2023-01-23T11:18:01.470Z,17.60
2023-01-23T11:20:32.668Z,18.80
2023-01-23T11:23:12.806Z,18.20
2023-01-23T11:25:45.542Z,19.10
2023-01-23T11:28:24.347Z,17.30
2023-01-23T11:31:12.344Z,18.20
2023-01-23T11:33:47.161Z,18.20
2023-01-23T11:36:31.617Z,17.80
2023-01-23T11:39:07.057Z,18.50
2023-01-23T11:41:36.529Z,17.70
2023-01-23T11:44:11.277Z,18.10
2023-01-23T11:46:59.555Z,17.50
2023-01-23T11:49:51.367Z,17.70
2023-01-23T11:52:36.152Z,16.60
2023-01-23T11:55:26.382Z,18.10
2023-01-23T11:58:06.143Z,18.20
2023-01-23T12:00:42.359Z,18.00
2023-01-23T12:03:28.463Z,16.80
2023-01-23T12:06:20.051Z,16.10
2023-01-23T12:08:54.376Z,20.90
2023-01-23T12:11:24.888Z,20.30
2023-01-23T12:14:15.853Z,19.20
2023-01-23T12:16:56.800Z,22.10
2023-01-23T12:19:38.123Z,20.30
2023-01-23T12:22:14.589Z,19.00
2023-01-23T12:24:58.456Z,19.50
2023-01-23T12:27:39.203Z,20.10
2023-01-23T12:30:46.365Z,19.90
2023-01-23T12:33:35.665Z,21.30
2023-01-23T12:36:19.983Z,19.00
2023-01-23T12:38:59.299Z,20.40
2023-01-23T12:41:37.473Z,22.00
2023-01-23T12:44:14.406Z,22.00
2023-01-23T12:46:46.341Z,21.70
2023-01-23T12:49:26.969Z,21.90
2023-01-23T12:52:00.695Z,21.20
2023-01-23T12:54:36.537Z,19.30
2023-01-23T12:57:05.700Z,20.10
2023-01-23T12:59:47.693Z,22.60
2023-01-23T13:02:24.155Z,21.20
2023-01-23T13:05:06.499Z,21.10
2023-01-23T13:07:46.232Z,20.20
2023-01-23T13:10:46.087Z,19.50
2023-01-23T13:13:15.687Z,19.90
2023-01-23T13:15:44.349Z,21.60
2023-01-23T13:18:27.217Z,20.80
2023-01-23T13:21:17.038Z,19.00
2023-01-23T13:23:45.414Z,19.70
2023-01-23T13:26:28.578Z,20.30
2023-01-23T13:29:00.847Z,18.50
2023-01-23T13:31:39.855Z,20.10
2023-01-23T13:34:37.704Z,18.30
2023-01-23T13:37:52.923Z,19.00
2023-01-23T13:40:23.544Z,17.10
2023-01-23T13:42:52.127Z,19.40
2023-01-23T13:45:35.154Z,18.50
2023-01-23T14:20:39.380Z,16.70
2023-01-23T14:28:29.622Z,16.60
2023-01-23T14:31:02.970Z,17.70
2023-01-23T14:33:42.908Z,17.40
2023-01-23T14:36:19.164Z,18.10
2023-01-23T14:38:51.487Z,18.70
2023-01-23T14:41:31.158Z,16.80
2023-01-23T14:44:04.139Z,19.10
2023-01-23T14:46:40.465Z,17.30
2023-01-23T14:49:12.226Z,18.20
2023-01-23T14:51:55.056Z,16.10
2023-01-23T14:54:29.643Z,18.20
2023-01-23T14:57:05.684Z,17.60
2023-01-23T14:59:38.748Z,18.90
2023-01-23T15:07:54.982Z,17.30
2023-01-23T15:10:28.734Z,16.60
2023-01-23T15:13:03.396Z,17.50
2023-01-23T15:15:35.767Z,17.20
2023-01-23T15:18:19.955Z,19.80
2023-01-23T15:20:58.218Z,19.10
2023-01-23T15:23:33.365Z,17.90
2023-01-23T15:26:27.304Z,18.00
2023-01-23T15:29:01.930Z,20.00
2023-01-23T15:31:35.469Z,21.20
2023-01-23T15:34:25.825Z,20.80
2023-01-23T15:37:05.376Z,16.60
2023-01-23T15:39:40.484Z,18.30
2023-01-23T15:47:45.986Z,17.00
2023-01-23T15:50:17.286Z,19.20
2023-01-23T15:52:53.301Z,19.00
2023-01-23T15:55:26.699Z,18.40
2023-01-23T15:57:58.060Z,18.40
2023-01-23T16:00:31.185Z,18.50
2023-01-23T16:03:04.083Z,19.70
2023-01-23T16:05:37.750Z,19.70
2023-01-23T16:08:17.059Z,20.50
2023-01-23T16:10:48.619Z,18.60
2023-01-23T16:13:26.651Z,20.30
2023-01-23T16:15:57.470Z,20.30
2023-01-23T16:18:32.067Z,21.20
2023-01-23T16:21:08.024Z,19.90
2023-01-23T16:23:47.181Z,18.90
2023-01-23T16:26:40.747Z,20.20
2023-01-23T16:29:26.606Z,18.60
2023-01-23T16:31:59.399Z,19.10
2023-01-23T16:34:30.522Z,20.80
2023-01-23T16:37:02.864Z,19.20
2023-01-23T16:39:36.657Z,18.90
2023-01-23T16:42:07.580Z,21.10
2023-01-23T16:44:38.375Z,20.00
2023-01-23T16:47:09.401Z,20.60
2023-01-23T16:49:51.336Z,22.00
2023-01-23T16:52:26.450Z,19.60
2023-01-23T16:54:57.249Z,21.70
2023-01-23T16:57:28.193Z,20.50
2023-01-23T16:59:59.503Z,19.40
2023-01-23T17:02:32.899Z,23.20
2023-01-23T17:05:12.280Z,20.80
2023-01-23T17:07:43.001Z,23.10
2023-01-23T17:10:21.039Z,22.20
2023-01-23T17:12:53.626Z,21.80
2023-01-23T17:15:29.204Z,21.70
2023-01-23T17:18:02.203Z,19.90
2023-01-23T17:20:34.471Z,20.50
2023-01-23T17:23:05.198Z,21.00
2023-01-23T17:25:42.714Z,22.50
2023-01-23T17:28:22.290Z,20.80
2023-01-23T17:30:55.481Z,21.60
2023-01-23T17:33:31.326Z,20.90
2023-01-23T17:36:04.698Z,21.30
2023-01-23T17:38:44.751Z,20.90
2023-01-23T17:41:19.432Z,23.50
2023-01-23T17:43:51.434Z,20.90
2023-01-23T17:46:27.251Z,21.10
2023-01-23T17:48:58.933Z,22.50
2023-01-23T17:51:30.059Z,22.70
2023-01-23T17:54:00.864Z,22.50
2023-01-23T17:56:31.834Z,19.50
2023-01-23T17:59:02.870Z,24.70
2023-01-23T18:01:33.666Z,24.20
2023-01-23T18:04:04.999Z,23.60
2023-01-23T18:06:35.986Z,25.00
2023-01-23T18:09:07.141Z,22.10
2023-01-23T18:11:41.407Z,22.60
2023-01-23T18:14:47.587Z,22.80
2023-01-23T18:17:30.378Z,23.10
2023-01-23T18:20:03.948Z,21.90
2023-01-23T18:22:35.799Z,23.90
2023-01-23T18:25:14.246Z,22.70
2023-01-23T18:27:50.307Z,24.00
2023-01-23T18:30:39.543Z,23.00
2023-01-23T18:33:29.382Z,23.80
2023-01-23T18:36:31.791Z,23.70
2023-01-23T18:39:32.906Z,23.00
2023-01-23T18:42:18.770Z,24.20
2023-01-23T18:44:57.599Z,24.10
2023-01-23T18:47:28.933Z,23.40
2023-01-23T18:50:00.640Z,23.90
2023-01-23T18:52:44.725Z,24.60
2023-01-23T18:55:24.554Z,23.30
2023-01-23T18:58:05.240Z,25.00
2023-01-23T19:00:43.331Z,25.00
2023-01-23T19:03:16.991Z,24.80
2023-01-23T19:05:48.394Z,26.10
2023-01-23T19:08:28.673Z,24.80
2023-01-23T19:11:06.711Z,26.40
2023-01-23T19:13:45.425Z,25.00
2023-01-23T19:16:23.717Z,26.40
2023-01-23T19:19:10.733Z,26.40
2023-01-23T19:21:47.279Z,24.70
2023-01-23T19:24:21.442Z,26.10
2023-01-23T19:26:54.279Z,25.70
2023-01-23T19:29:25.943Z,25.40
2023-01-23T19:32:06.034Z,24.80
2023-01-23T19:34:37.277Z,25.30
2023-01-23T19:37:08.516Z,24.60
2023-01-23T19:39:39.860Z,23.90
2023-01-23T19:42:16.586Z,23.10
2023-01-23T19:44:47.991Z,24.50
2023-01-23T19:47:18.808Z,23.80
2023-01-23T19:49:49.525Z,24.50
2023-01-23T19:52:21.148Z,24.70
2023-01-23T19:54:52.518Z,24.40
2023-01-23T19:57:23.445Z,24.50
2023-01-23T19:59:54.630Z,25.30
2023-01-23T20:02:33.640Z,25.50
2023-01-23T20:05:05.911Z,24.20
2023-01-23T20:07:36.950Z,25.00
2023-01-23T20:10:11.447Z,24.40
2023-01-23T20:12:47.702Z,24.50
2023-01-23T20:15:19.708Z,24.80
2023-01-23T20:17:53.053Z,26.10
2023-01-23T20:20:28.750Z,25.20
2023-01-23T20:22:59.958Z,26.60
2023-01-23T20:25:31.104Z,27.10
2023-01-23T20:28:02.204Z,27.40
2023-01-23T20:30:34.314Z,27.30
2023-01-23T20:33:10.604Z,28.60
2023-01-23T20:35:42.122Z,27.90
2023-01-23T20:38:15.444Z,26.70
2023-01-23T20:40:46.574Z,28.70
2023-01-23T20:43:18.229Z,28.80
2023-01-23T20:45:50.897Z,29.60
2023-01-23T20:48:22.028Z,28.60
2023-01-23T20:50:59.999Z,29.30
2023-01-23T20:53:31.748Z,28.00
2023-01-23T20:56:06.294Z,27.60
2023-01-23T20:58:59.409Z,27.70
2023-01-23T21:01:53.599Z,31.90
2023-01-23T21:04:26.692Z,27.90
2023-01-23T21:06:57.654Z,30.20
2023-01-23T21:09:29.311Z,29.60
2023-01-23T21:12:02.760Z,28.00
2023-01-23T21:14:34.712Z,29.00
2023-01-23T21:17:08.787Z,30.00
2023-01-23T21:19:51.699Z,29.10
2023-01-23T21:22:22.904Z,31.60
2023-01-23T21:24:54.259Z,29.50
2023-01-23T21:27:25.959Z,28.00
2023-01-23T21:29:59.962Z,27.60
2023-01-23T21:32:31.219Z,30.20
2023-01-23T21:35:03.241Z,30.50
2023-01-23T21:37:37.451Z,29.20
2023-01-23T21:40:11.353Z,29.20
2023-01-23T21:42:42.385Z,30.20
2023-01-23T21:45:14.454Z,30.20
2023-01-23T21:47:45.185Z,28.30
2023-01-23T21:50:17.791Z,28.10
2023-01-23T21:52:48.810Z,29.20
2023-01-23T21:55:20.200Z,28.80
2023-01-23T21:57:52.150Z,29.40
2023-01-23T22:00:41.100Z,27.10
2023-01-23T22:03:11.862Z,28.10
2023-01-23T22:05:42.641Z,28.90
2023-01-23T22:08:13.597Z,30.50
2023-01-23T22:10:44.308Z,29.70
2023-01-23T22:13:15.074Z,27.20
2023-01-23T22:15:45.789Z,27.80
2023-01-23T22:18:16.534Z,28.60
2023-01-23T22:20:47.232Z,24.90
2023-01-23T22:23:18.056Z,28.40
2023-01-23T22:25:49.247Z,29.50
2023-01-23T22:28:20.368Z,30.20
2023-01-23T22:30:51.071Z,28.70
2023-01-23T22:33:24.019Z,29.50
2023-01-23T22:35:56.534Z,28.50
2023-01-23T22:38:27.318Z,29.30
2023-01-23T22:41:02.731Z,30.70
2023-01-23T22:43:33.755Z,30.10
2023-01-23T22:46:10.154Z,29.80
2023-01-23T22:48:41.082Z,29.70
2023-01-23T22:51:19.836Z,31.30
2023-01-23T22:53:50.917Z,30.40
2023-01-23T22:56:22.093Z,29.10
2023-01-23T22:58:54.537Z,30.20
2023-01-23T23:01:27.296Z,29.10
2023-01-23T23:03:59.233Z,29.30
2023-01-23T23:06:30.447Z,30.70
2023-01-23T23:09:01.144Z,29.20
2023-01-23T23:11:31.942Z,28.90
2023-01-23T23:14:02.728Z,29.80
2023-01-23T23:16:34.043Z,30.40
2023-01-23T23:19:05.601Z,29.80
2023-01-23T23:21:38.331Z,30.40
2023-01-23T23:24:14.125Z,28.80
2023-01-23T23:26:44.925Z,31.40
2023-01-23T23:29:16.889Z,29.80
2023-01-23T23:31:51.597Z,29.80
2023-01-23T23:34:22.733Z,28.40
2023-01-23T23:36:53.483Z,31.00
2023-01-23T23:39:24.382Z,29.20
2023-01-23T23:41:55.262Z,29.40
2023-01-23T23:44:26.177Z,27.90
2023-01-23T23:46:56.872Z,28.20
2023-01-23T23:49:27.581Z,32.20
2023-01-23T23:51:58.299Z,31.10
2023-01-23T23:54:29.228Z,29.60
2023-01-23T23:57:00.025Z,29.70
2023-01-23T23:59:30.850Z,30.70
